createdAt,value
2022-09-23T00:00:16.480Z,27.77
2022-09-23T00:05:22.625Z,46.45
2022-09-23T00:10:32.694Z,42.13
2022-09-23T00:15:42.243Z,32.22
2022-09-23T00:20:47.625Z,34.53
2022-09-23T00:31:08.152Z,37.97
2022-09-23T00:36:17.998Z,30.38
2022-09-23T00:41:24.078Z,37.30
2022-09-23T00:51:55.925Z,37.63
2022-09-23T00:57:07.358Z,30.80
2022-09-23T01:02:15.932Z,33.42
2022-09-23T01:07:21.595Z,32.67
2022-09-23T01:18:02.528Z,35.70
2022-09-23T01:23:43.596Z,33.03
2022-09-23T01:28:54.717Z,32.97
2022-09-23T01:34:07.941Z,20.75
2022-09-23T01:39:24.351Z,32.85
2022-09-23T01:44:40.872Z,21.45
2022-09-23T01:50:30.770Z,33.88
2022-09-23T01:55:44.590Z,26.58
2022-09-23T02:01:08.874Z,22.52
2022-09-23T02:06:49.079Z,20.60
2022-09-23T02:12:02.273Z,20.40
2022-09-23T02:17:14.751Z,25.52
2022-09-23T02:22:26.209Z,32.83
2022-09-23T02:27:56.513Z,32.42
2022-09-23T02:33:08.905Z,30.75
2022-09-23T02:38:45.688Z,32.05
2022-09-23T02:44:05.054Z,25.75
2022-09-23T02:49:19.663Z,20.00
2022-09-23T02:54:29.610Z,28.42
2022-09-23T02:59:37.645Z,26.90
2022-09-23T03:05:05.617Z,29.95
2022-09-23T03:10:17.110Z,30.27
2022-09-23T03:15:37.828Z,21.15
2022-09-23T03:20:59.185Z,20.20
2022-09-23T03:26:14.782Z,32.20
2022-09-23T03:31:20.689Z,32.50
2022-09-23T03:36:55.068Z,26.52
2022-09-23T03:42:10.042Z,32.30
2022-09-23T03:47:17.056Z,24.33
2022-09-23T03:52:25.622Z,29.05
2022-09-23T03:57:30.994Z,17.33
2022-09-23T04:02:37.142Z,26.02
2022-09-23T04:07:43.084Z,23.92
2022-09-23T04:12:48.969Z,26.77
2022-09-23T04:23:00.120Z,27.50
2022-09-23T04:28:05.908Z,23.95
2022-09-23T04:33:12.789Z,26.15
2022-09-23T04:38:18.336Z,24.80
2022-09-23T04:43:25.203Z,37.63
2022-09-23T04:48:32.158Z,28.80
2022-09-23T04:53:39.561Z,27.10
2022-09-23T04:58:46.098Z,24.77
2022-09-23T05:03:51.379Z,25.00
2022-09-23T05:08:57.998Z,33.50
2022-09-23T05:14:03.375Z,33.65
2022-09-23T05:24:15.046Z,36.80
2022-09-23T05:29:20.594Z,34.72
2022-09-23T05:39:31.917Z,29.27
2022-09-23T05:44:37.371Z,23.65
2022-09-23T05:49:59.261Z,26.23
2022-09-23T05:55:07.248Z,29.88
2022-09-23T06:00:13.723Z,21.13
2022-09-23T06:05:19.489Z,28.50
2022-09-23T06:10:25.372Z,20.98
2022-09-23T06:15:31.247Z,26.38
2022-09-23T06:20:37.350Z,23.17
2022-09-23T06:25:42.914Z,25.98
2022-09-23T06:30:49.474Z,27.40
2022-09-23T06:36:02.111Z,22.27
2022-09-23T06:41:07.621Z,22.73
2022-09-23T06:51:21.418Z,20.33
2022-09-23T06:56:26.706Z,23.38
2022-09-23T07:06:38.835Z,20.63
2022-09-23T07:11:44.763Z,21.92
2022-09-23T07:16:54.986Z,21.13
2022-09-23T07:22:00.539Z,18.63
2022-09-23T07:27:07.090Z,18.05
2022-09-23T07:32:14.340Z,21.30
2022-09-23T07:37:20.597Z,20.30
2022-09-23T07:42:26.093Z,19.90
2022-09-23T07:47:33.215Z,21.65
2022-09-23T07:52:40.240Z,21.45
2022-09-23T07:57:45.822Z,22.10
2022-09-23T08:08:00.380Z,24.63
2022-09-23T08:13:06.282Z,18.67
2022-09-23T08:18:12.324Z,24.40
2022-09-23T08:23:20.172Z,20.45
2022-09-23T08:28:27.810Z,21.60
2022-09-23T08:33:33.726Z,20.35
2022-09-23T08:43:51.426Z,12.85
2022-09-23T08:48:57.674Z,18.73
2022-09-23T08:54:03.330Z,20.75
2022-09-23T08:59:28.479Z,19.83
2022-09-23T09:04:46.137Z,13.80
2022-09-23T09:09:59.766Z,20.20
2022-09-23T09:15:14.867Z,21.20
2022-09-23T09:20:51.828Z,19.10
2022-09-23T09:26:08.581Z,18.75
2022-09-23T09:31:28.801Z,23.45
2022-09-23T09:37:06.848Z,20.25
2022-09-23T09:42:26.165Z,19.75
2022-09-23T09:47:48.404Z,22.17
2022-09-23T09:53:15.704Z,21.60
2022-09-23T09:58:21.145Z,22.75
2022-09-23T10:03:41.766Z,22.58
2022-09-23T10:09:05.490Z,21.63
2022-09-23T10:14:19.288Z,21.95
2022-09-23T10:19:30.910Z,18.10
2022-09-23T10:24:41.165Z,21.60
2022-09-23T10:29:49.599Z,19.10
2022-09-23T10:35:26.208Z,20.73
2022-09-23T10:40:55.782Z,25.65
2022-09-23T10:46:26.819Z,25.45
2022-09-23T10:51:58.090Z,23.90
2022-09-23T10:57:52.689Z,27.70
2022-09-23T11:03:35.315Z,25.27
2022-09-23T11:08:55.215Z,24.42
2022-09-23T11:14:19.480Z,31.15
2022-09-23T11:19:50.969Z,26.65
2022-09-23T11:25:24.781Z,36.97
2022-09-23T11:31:05.905Z,36.95
2022-09-23T11:36:17.453Z,35.45
2022-09-23T11:41:29.235Z,35.22
2022-09-23T11:46:56.216Z,28.55
2022-09-23T11:52:04.557Z,28.48
2022-09-23T11:57:18.871Z,33.63
2022-09-23T12:03:05.341Z,35.45
2022-09-23T12:08:34.571Z,33.60
2022-09-23T12:13:49.372Z,29.48
2022-09-23T12:42:13.363Z,28.92
2022-09-23T12:47:33.124Z,28.63
2022-09-23T12:52:39.360Z,36.28
2022-09-23T12:57:45.208Z,27.88
2022-09-23T13:03:14.333Z,29.80
2022-09-23T13:08:29.412Z,27.70
2022-09-23T13:13:43.859Z,27.33
2022-09-23T13:18:58.212Z,29.55
2022-09-23T13:24:33.020Z,38.05
2022-09-23T13:29:50.967Z,32.83
2022-09-23T13:35:19.106Z,39.30
2022-09-23T13:40:31.211Z,35.83
2022-09-23T13:45:44.909Z,32.25
2022-09-23T13:50:55.870Z,38.20
2022-09-23T13:56:20.013Z,38.17
2022-09-23T14:01:37.724Z,34.47
2022-09-23T14:06:44.350Z,35.15
2022-09-23T14:11:53.482Z,33.83
2022-09-23T14:17:02.169Z,36.90
2022-09-23T14:22:25.429Z,31.20
2022-09-23T14:27:38.397Z,27.92
2022-09-23T14:32:46.174Z,28.63
2022-09-23T14:38:14.772Z,38.30
2022-09-23T14:43:32.110Z,33.40
2022-09-23T14:48:38.695Z,28.85
2022-09-23T14:53:47.402Z,27.40
2022-09-23T14:59:00.799Z,33.72
2022-09-23T15:04:18.815Z,28.42
2022-09-23T15:09:38.091Z,32.30
2022-09-23T15:14:51.165Z,41.70
2022-09-23T15:20:07.352Z,35.10
2022-09-23T15:25:32.555Z,29.65
2022-09-23T15:30:39.963Z,30.15
2022-09-23T15:35:49.138Z,33.30
2022-09-23T15:40:55.788Z,27.85
2022-09-23T15:46:21.811Z,33.38
2022-09-23T15:51:28.373Z,30.42
2022-09-23T15:56:33.884Z,27.33
2022-09-23T16:01:41.343Z,30.35
2022-09-23T16:06:49.715Z,30.35
2022-09-23T16:11:56.223Z,30.38
2022-09-23T16:17:05.114Z,33.60
2022-09-23T16:22:13.836Z,35.83
2022-09-23T16:27:21.829Z,36.92
2022-09-23T16:32:30.571Z,39.90
2022-09-23T16:37:36.806Z,39.20
2022-09-23T16:42:42.216Z,42.05
2022-09-23T16:47:49.207Z,41.05
2022-09-23T16:52:58.548Z,42.00
2022-09-23T16:58:04.072Z,35.15
2022-09-23T17:03:27.964Z,32.65
2022-09-23T17:08:33.698Z,27.20
2022-09-23T17:18:45.672Z,28.25
2022-09-23T17:23:51.345Z,29.17
2022-09-23T17:29:00.574Z,29.75
2022-09-23T17:34:05.805Z,38.92
2022-09-23T17:39:11.314Z,44.20
2022-09-23T17:44:19.282Z,34.63
2022-09-23T17:49:25.913Z,34.05
2022-09-23T17:54:31.459Z,25.83
2022-09-23T17:59:36.923Z,37.80
2022-09-23T18:04:42.261Z,39.60
2022-09-23T18:09:47.543Z,45.13
2022-09-23T18:14:52.986Z,38.60
2022-09-23T18:19:58.415Z,44.67
2022-09-23T18:25:22.715Z,56.95
2022-09-23T18:30:34.601Z,46.85
2022-09-23T18:35:40.418Z,45.75
2022-09-23T18:40:57.882Z,37.92
2022-09-23T18:46:07.131Z,43.55
2022-09-23T18:51:14.216Z,30.10
2022-09-23T18:56:24.434Z,35.78
2022-09-23T19:01:30.522Z,33.30
2022-09-23T19:06:36.828Z,29.20
2022-09-23T19:11:42.289Z,35.65
2022-09-23T19:16:50.574Z,36.80
2022-09-23T19:21:56.450Z,28.80
2022-09-23T19:27:04.943Z,33.60
2022-09-23T19:32:10.446Z,24.73
2022-09-23T19:37:15.878Z,31.55
2022-09-23T19:42:21.290Z,27.70
2022-09-23T19:47:27.135Z,23.40
2022-09-23T19:52:32.835Z,34.63
2022-09-23T20:02:43.754Z,22.13
2022-09-23T20:07:49.569Z,39.75
2022-09-23T20:12:55.566Z,44.78
2022-09-23T20:18:01.001Z,49.40
2022-09-23T20:23:06.475Z,45.38
2022-09-23T20:28:12.137Z,43.15
2022-09-23T20:33:17.634Z,45.53
2022-09-23T20:38:23.324Z,41.55
2022-09-23T20:48:34.015Z,44.67
2022-09-23T20:58:46.303Z,48.38
2022-09-23T21:03:54.019Z,34.53
2022-09-23T21:09:01.089Z,41.22
2022-09-23T21:14:07.047Z,41.22
2022-09-23T21:19:12.674Z,30.75
2022-09-23T21:24:53.197Z,35.05
2022-09-23T21:29:43.385Z,36.23
2022-09-23T21:34:49.147Z,21.42
2022-09-23T21:40:20.369Z,34.03
2022-09-23T21:45:25.850Z,30.73
2022-09-23T21:50:31.285Z,34.92
2022-09-23T22:00:42.060Z,30.75
2022-09-23T22:05:47.692Z,23.98
2022-09-23T22:10:55.798Z,24.50
2022-09-23T22:16:07.706Z,20.45
2022-09-23T22:21:13.269Z,21.23
2022-09-23T22:26:18.543Z,21.70
2022-09-23T22:31:42.223Z,23.48
2022-09-23T22:36:48.096Z,21.27
2022-09-23T22:47:00.538Z,15.25
2022-09-23T22:52:10.055Z,18.10
2022-09-23T22:57:16.513Z,15.38
2022-09-23T23:02:25.891Z,15.90
2022-09-23T23:07:31.700Z,14.70
2022-09-23T23:12:37.214Z,15.65
2022-09-23T23:17:45.009Z,16.45
2022-09-23T23:22:50.434Z,17.95
2022-09-23T23:27:55.958Z,18.95
2022-09-23T23:33:02.065Z,12.88
2022-09-23T23:38:09.644Z,21.33
2022-09-23T23:43:16.533Z,17.65
2022-09-23T23:48:22.960Z,19.40
2022-09-23T23:53:32.075Z,24.42
2022-09-23T23:58:38.229Z,21.17
